sensor_id;sensor_type;location;lat;lon;timestamp;P1;durP1;ratioP1;P2;durP2;ratioP2
23490;SDS011;14683;50.038;8.078;2023-02-17T06:44:09;10.95;;;8.10;;
23490;SDS011;14683;50.038;8.078;2023-02-17T06:49:01;11.90;;;8.75;;
23490;SDS011;14683;50.038;8.078;2023-02-17T06:53:53;15.23;;;8.80;;
23490;SDS011;14683;50.038;8.078;2023-02-17T06:56:19;11.88;;;8.07;;
23490;SDS011;14683;50.038;8.078;2023-02-17T07:01:19;9.27;;;7.32;;
23490;SDS011;14683;50.038;8.078;2023-02-17T07:03:46;8.95;;;7.53;;
23490;SDS011;14683;50.038;8.078;2023-02-17T07:06:12;9.70;;;7.38;;
23490;SDS011;14683;50.038;8.078;2023-02-17T07:08:39;12.60;;;8.43;;
23490;SDS011;14683;50.038;8.078;2023-02-17T07:11:09;9.55;;;6.88;;
23490;SDS011;14683;50.038;8.078;2023-02-17T07:13:36;10.63;;;6.85;;
23490;SDS011;14683;50.038;8.078;2023-02-17T07:16:03;8.00;;;6.63;;
23490;SDS011;14683;50.038;8.078;2023-02-17T07:18:29;8.38;;;6.30;;
23490;SDS011;14683;50.038;8.078;2023-02-17T07:20:55;8.13;;;6.43;;
23490;SDS011;14683;50.038;8.078;2023-02-17T07:25:47;7.85;;;6.40;;
23490;SDS011;14683;50.038;8.078;2023-02-17T07:28:13;7.00;;;6.03;;
23490;SDS011;14683;50.038;8.078;2023-02-17T07:30:39;10.20;;;7.20;;
23490;SDS011;14683;50.038;8.078;2023-02-17T07:33:06;12.68;;;9.95;;
23490;SDS011;14683;50.038;8.078;2023-02-17T07:35:32;11.10;;;7.85;;
23490;SDS011;14683;50.038;8.078;2023-02-17T07:37:59;10.27;;;7.72;;
23490;SDS011;14683;50.038;8.078;2023-02-17T07:40:25;8.50;;;7.30;;
23490;SDS011;14683;50.038;8.078;2023-02-17T07:42:52;9.68;;;6.57;;
23490;SDS011;14683;50.038;8.078;2023-02-17T07:45:18;8.52;;;6.65;;
23490;SDS011;14683;50.038;8.078;2023-02-17T07:47:44;8.60;;;6.07;;
23490;SDS011;14683;50.038;8.078;2023-02-17T07:50:10;7.32;;;5.60;;
23490;SDS011;14683;50.038;8.078;2023-02-17T07:52:36;8.48;;;6.38;;
23490;SDS011;14683;50.038;8.078;2023-02-17T07:55:03;9.65;;;6.55;;
23490;SDS011;14683;50.038;8.078;2023-02-17T07:59:55;5.60;;;5.00;;
23490;SDS011;14683;50.038;8.078;2023-02-17T08:02:20;5.68;;;4.80;;
23490;SDS011;14683;50.038;8.078;2023-02-17T08:04:47;6.85;;;5.18;;
23490;SDS011;14683;50.038;8.078;2023-02-17T08:07:12;6.07;;;5.22;;
23490;SDS011;14683;50.038;8.078;2023-02-17T08:09:38;7.57;;;5.32;;
23490;SDS011;14683;50.038;8.078;2023-02-17T08:12:23;6.65;;;5.53;;
23490;SDS011;14683;50.038;8.078;2023-02-17T08:15:08;7.22;;;5.60;;
23490;SDS011;14683;50.038;8.078;2023-02-17T08:17:35;6.50;;;5.72;;
23490;SDS011;14683;50.038;8.078;2023-02-17T08:22:27;8.73;;;6.70;;
23490;SDS011;14683;50.038;8.078;2023-02-17T08:24:53;7.10;;;6.35;;
23490;SDS011;14683;50.038;8.078;2023-02-17T08:27:19;8.85;;;6.28;;
23490;SDS011;14683;50.038;8.078;2023-02-17T08:29:46;7.20;;;5.65;;
23490;SDS011;14683;50.038;8.078;2023-02-17T08:32:12;7.60;;;6.35;;
23490;SDS011;14683;50.038;8.078;2023-02-17T08:34:39;8.43;;;5.70;;
23490;SDS011;14683;50.038;8.078;2023-02-17T08:39:34;8.95;;;6.10;;
23490;SDS011;14683;50.038;8.078;2023-02-17T08:42:01;13.82;;;6.68;;
23490;SDS011;14683;50.038;8.078;2023-02-17T08:44:27;6.47;;;5.65;;
23490;SDS011;14683;50.038;8.078;2023-02-17T08:46:53;7.18;;;5.70;;
23490;SDS011;14683;50.038;8.078;2023-02-17T08:49:21;9.82;;;6.93;;
23490;SDS011;14683;50.038;8.078;2023-02-17T08:51:49;8.18;;;6.65;;
23490;SDS011;14683;50.038;8.078;2023-02-17T08:54:15;8.95;;;6.72;;
23490;SDS011;14683;50.038;8.078;2023-02-17T08:56:42;9.80;;;6.75;;
23490;SDS011;14683;50.038;8.078;2023-02-17T09:01:34;8.18;;;6.25;;
23490;SDS011;14683;50.038;8.078;2023-02-17T09:04:02;9.75;;;6.65;;
23490;SDS011;14683;50.038;8.078;2023-02-17T09:06:33;9.07;;;6.80;;
23490;SDS011;14683;50.038;8.078;2023-02-17T09:09:01;8.73;;;6.60;;
23490;SDS011;14683;50.038;8.078;2023-02-17T09:11:28;10.35;;;6.68;;
23490;SDS011;14683;50.038;8.078;2023-02-17T09:16:20;8.73;;;6.57;;
23490;SDS011;14683;50.038;8.078;2023-02-17T09:18:52;9.48;;;7.05;;
23490;SDS011;14683;50.038;8.078;2023-02-17T09:21:19;12.82;;;8.45;;
23490;SDS011;14683;50.038;8.078;2023-02-17T09:23:46;10.15;;;7.40;;
23490;SDS011;14683;50.038;8.078;2023-02-17T09:26:13;8.85;;;7.07;;
23490;SDS011;14683;50.038;8.078;2023-02-17T09:28:41;11.77;;;7.55;;
23490;SDS011;14683;50.038;8.078;2023-02-17T09:31:11;10.35;;;7.18;;
23490;SDS011;14683;50.038;8.078;2023-02-17T09:33:42;9.30;;;6.85;;
23490;SDS011;14683;50.038;8.078;2023-02-17T09:36:09;11.45;;;7.50;;
23490;SDS011;14683;50.038;8.078;2023-02-17T09:38:37;12.00;;;7.57;;
23490;SDS011;14683;50.038;8.078;2023-02-17T09:43:53;10.40;;;6.88;;
23490;SDS011;14683;50.038;8.078;2023-02-17T09:46:30;8.25;;;6.88;;
23490;SDS011;14683;50.038;8.078;2023-02-17T09:49:00;9.68;;;7.22;;
23490;SDS011;14683;50.038;8.078;2023-02-17T09:51:32;9.73;;;6.80;;
23490;SDS011;14683;50.038;8.078;2023-02-17T09:54:11;9.18;;;6.50;;
23490;SDS011;14683;50.038;8.078;2023-02-17T09:56:41;10.57;;;6.78;;
23490;SDS011;14683;50.038;8.078;2023-02-17T09:59:13;7.97;;;6.43;;
23490;SDS011;14683;50.038;8.078;2023-02-17T10:01:43;9.00;;;6.97;;
23490;SDS011;14683;50.038;8.078;2023-02-17T10:04:20;7.68;;;6.22;;
23490;SDS011;14683;50.038;8.078;2023-02-17T10:06:49;8.05;;;5.88;;
23490;SDS011;14683;50.038;8.078;2023-02-17T10:14:28;7.25;;;5.65;;
23490;SDS011;14683;50.038;8.078;2023-02-17T10:17:00;5.68;;;5.07;;
23490;SDS011;14683;50.038;8.078;2023-02-17T10:19:53;5.55;;;4.68;;
23490;SDS011;14683;50.038;8.078;2023-02-17T10:22:22;5.30;;;4.70;;
23490;SDS011;14683;50.038;8.078;2023-02-17T10:24:48;6.13;;;4.15;;
23490;SDS011;14683;50.038;8.078;2023-02-17T10:29:59;3.45;;;3.15;;
23490;SDS011;14683;50.038;8.078;2023-02-17T10:32:29;5.00;;;3.20;;
23490;SDS011;14683;50.038;8.078;2023-02-17T10:40:24;3.80;;;3.40;;
23490;SDS011;14683;50.038;8.078;2023-02-17T10:42:53;3.65;;;3.35;;
23490;SDS011;14683;50.038;8.078;2023-02-17T10:45:24;3.55;;;3.25;;
23490;SDS011;14683;50.038;8.078;2023-02-17T10:47:57;10.02;;;3.67;;
23490;SDS011;14683;50.038;8.078;2023-02-17T10:50:26;3.78;;;3.28;;
23490;SDS011;14683;50.038;8.078;2023-02-17T10:55:33;4.80;;;3.20;;
23490;SDS011;14683;50.038;8.078;2023-02-17T10:58:06;4.00;;;3.45;;
23490;SDS011;14683;50.038;8.078;2023-02-17T11:00:36;4.25;;;3.10;;
23490;SDS011;14683;50.038;8.078;2023-02-17T11:03:02;5.68;;;3.50;;
23490;SDS011;14683;50.038;8.078;2023-02-17T11:05:30;2.80;;;2.53;;
23490;SDS011;14683;50.038;8.078;2023-02-17T11:07:59;2.70;;;2.50;;
23490;SDS011;14683;50.038;8.078;2023-02-17T11:10:35;3.28;;;2.05;;
23490;SDS011;14683;50.038;8.078;2023-02-17T11:13:03;2.55;;;2.35;;
23490;SDS011;14683;50.038;8.078;2023-02-17T11:15:34;2.95;;;2.58;;
23490;SDS011;14683;50.038;8.078;2023-02-17T11:18:08;2.88;;;2.60;;
23490;SDS011;14683;50.038;8.078;2023-02-17T11:20:36;2.80;;;2.60;;
23490;SDS011;14683;50.038;8.078;2023-02-17T11:25:35;2.20;;;2.00;;
23490;SDS011;14683;50.038;8.078;2023-02-17T11:28:04;2.55;;;2.08;;
23490;SDS011;14683;50.038;8.078;2023-02-17T11:30:33;2.40;;;2.20;;
23490;SDS011;14683;50.038;8.078;2023-02-17T11:33:10;2.30;;;2.03;;
23490;SDS011;14683;50.038;8.078;2023-02-17T11:35:48;2.03;;;1.92;;
23490;SDS011;14683;50.038;8.078;2023-02-17T11:38:21;2.10;;;1.88;;
23490;SDS011;14683;50.038;8.078;2023-02-17T11:40:51;2.05;;;1.95;;
23490;SDS011;14683;50.038;8.078;2023-02-17T11:43:19;2.70;;;1.98;;
23490;SDS011;14683;50.038;8.078;2023-02-17T11:45:50;1.95;;;1.85;;
23490;SDS011;14683;50.038;8.078;2023-02-17T11:56:17;2.05;;;1.95;;
23490;SDS011;14683;50.038;8.078;2023-02-17T12:04:33;1.90;;;1.55;;
23490;SDS011;14683;50.038;8.078;2023-02-17T12:07:32;1.70;;;1.60;;
23490;SDS011;14683;50.038;8.078;2023-02-17T12:23:10;1.48;;;1.38;;
23490;SDS011;14683;50.038;8.078;2023-02-17T12:25:42;2.28;;;1.75;;
23490;SDS011;14683;50.038;8.078;2023-02-17T12:36:02;1.30;;;1.20;;
23490;SDS011;14683;50.038;8.078;2023-02-17T12:38:44;1.48;;;1.38;;
23490;SDS011;14683;50.038;8.078;2023-02-17T12:41:16;1.42;;;1.33;;
23490;SDS011;14683;50.038;8.078;2023-02-17T12:43:52;1.55;;;1.45;;
23490;SDS011;14683;50.038;8.078;2023-02-17T12:46:26;1.13;;;1.13;;
23490;SDS011;14683;50.038;8.078;2023-02-17T12:51:44;1.23;;;1.20;;
23490;SDS011;14683;50.038;8.078;2023-02-17T12:57:23;1.40;;;1.30;;
23490;SDS011;14683;50.038;8.078;2023-02-17T12:59:54;1.58;;;1.02;;
23490;SDS011;14683;50.038;8.078;2023-02-17T13:02:22;1.02;;;1.02;;
23490;SDS011;14683;50.038;8.078;2023-02-17T13:04:53;2.00;;;1.30;;
23490;SDS011;14683;50.038;8.078;2023-02-17T13:10:02;1.30;;;1.20;;
23490;SDS011;14683;50.038;8.078;2023-02-17T13:12:37;1.13;;;1.13;;
23490;SDS011;14683;50.038;8.078;2023-02-17T13:15:06;1.03;;;1.00;;
23490;SDS011;14683;50.038;8.078;2023-02-17T13:17:54;2.05;;;1.00;;
23490;SDS011;14683;50.038;8.078;2023-02-17T13:20:39;1.95;;;1.10;;
23490;SDS011;14683;50.038;8.078;2023-02-17T13:23:09;0.80;;;0.80;;
23490;SDS011;14683;50.038;8.078;2023-02-17T13:25:38;1.30;;;1.17;;
23490;SDS011;14683;50.038;8.078;2023-02-17T13:31:19;2.10;;;0.95;;
23490;SDS011;14683;50.038;8.078;2023-02-17T13:33:48;2.58;;;1.20;;
23490;SDS011;14683;50.038;8.078;2023-02-17T13:36:20;3.70;;;2.53;;
23490;SDS011;14683;50.038;8.078;2023-02-17T13:38:59;3.20;;;1.95;;
23490;SDS011;14683;50.038;8.078;2023-02-17T13:41:49;1.13;;;1.02;;
23490;SDS011;14683;50.038;8.078;2023-02-17T13:44:17;1.00;;;1.00;;
23490;SDS011;14683;50.038;8.078;2023-02-17T13:46:49;2.20;;;2.00;;
23490;SDS011;14683;50.038;8.078;2023-02-17T13:49:20;1.65;;;1.45;;
23490;SDS011;14683;50.038;8.078;2023-02-17T13:51:49;1.13;;;1.02;;
23490;SDS011;14683;50.038;8.078;2023-02-17T13:54:15;0.80;;;0.80;;
23490;SDS011;14683;50.038;8.078;2023-02-17T13:56:49;0.80;;;0.80;;
23490;SDS011;14683;50.038;8.078;2023-02-17T13:59:16;1.80;;;1.63;;
23490;SDS011;14683;50.038;8.078;2023-02-17T14:01:48;2.20;;;1.60;;
23490;SDS011;14683;50.038;8.078;2023-02-17T14:04:20;0.80;;;0.80;;
23490;SDS011;14683;50.038;8.078;2023-02-17T14:06:48;1.35;;;1.00;;
23490;SDS011;14683;50.038;8.078;2023-02-17T14:09:22;2.92;;;1.10;;
23490;SDS011;14683;50.038;8.078;2023-02-17T14:11:49;1.02;;;1.02;;
23490;SDS011;14683;50.038;8.078;2023-02-17T14:14:16;4.18;;;2.22;;
23490;SDS011;14683;50.038;8.078;2023-02-17T14:16:42;1.17;;;1.15;;
23490;SDS011;14683;50.038;8.078;2023-02-17T14:19:16;0.90;;;0.90;;
23490;SDS011;14683;50.038;8.078;2023-02-17T14:22:04;0.95;;;0.95;;
23490;SDS011;14683;50.038;8.078;2023-02-17T14:24:33;2.30;;;1.20;;
23490;SDS011;14683;50.038;8.078;2023-02-17T14:27:02;1.00;;;0.90;;
23490;SDS011;14683;50.038;8.078;2023-02-17T14:29:42;2.22;;;0.90;;
23490;SDS011;14683;50.038;8.078;2023-02-17T14:37:36;0.80;;;0.80;;
23490;SDS011;14683;50.038;8.078;2023-02-17T14:40:04;0.70;;;0.70;;
23490;SDS011;14683;50.038;8.078;2023-02-17T14:42:32;0.60;;;0.60;;
23490;SDS011;14683;50.038;8.078;2023-02-17T14:44:58;0.77;;;0.75;;
23490;SDS011;14683;50.038;8.078;2023-02-17T14:47:24;2.50;;;0.73;;
23490;SDS011;14683;50.038;8.078;2023-02-17T14:49:50;1.08;;;0.90;;
23490;SDS011;14683;50.038;8.078;2023-02-17T14:52:17;0.90;;;0.80;;
23490;SDS011;14683;50.038;8.078;2023-02-17T14:54:44;0.70;;;0.70;;
23490;SDS011;14683;50.038;8.078;2023-02-17T14:59:37;0.98;;;0.80;;
23490;SDS011;14683;50.038;8.078;2023-02-17T15:02:10;1.05;;;0.80;;
23490;SDS011;14683;50.038;8.078;2023-02-17T15:04:39;0.60;;;0.60;;
23490;SDS011;14683;50.038;8.078;2023-02-17T15:07:07;0.70;;;0.70;;
23490;SDS011;14683;50.038;8.078;2023-02-17T15:09:34;1.38;;;0.80;;
23490;SDS011;14683;50.038;8.078;2023-02-17T15:12:00;0.82;;;0.75;;
23490;SDS011;14683;50.038;8.078;2023-02-17T15:14:27;0.60;;;0.60;;
23490;SDS011;14683;50.038;8.078;2023-02-17T15:16:53;0.68;;;0.65;;
23490;SDS011;14683;50.038;8.078;2023-02-17T15:19:19;0.82;;;0.82;;
23490;SDS011;14683;50.038;8.078;2023-02-17T15:21:49;0.60;;;0.60;;
23490;SDS011;14683;50.038;8.078;2023-02-17T15:24:19;1.02;;;0.88;;
23490;SDS011;14683;50.038;8.078;2023-02-17T15:26:50;0.85;;;0.85;;
23490;SDS011;14683;50.038;8.078;2023-02-17T15:29:17;1.58;;;0.90;;
23490;SDS011;14683;50.038;8.078;2023-02-17T15:31:44;1.58;;;0.80;;
23490;SDS011;14683;50.038;8.078;2023-02-17T15:34:12;1.58;;;0.65;;
23490;SDS011;14683;50.038;8.078;2023-02-17T15:36:46;0.90;;;0.70;;
23490;SDS011;14683;50.038;8.078;2023-02-17T15:39:13;0.70;;;0.70;;
23490;SDS011;14683;50.038;8.078;2023-02-17T15:41:43;0.60;;;0.60;;
23490;SDS011;14683;50.038;8.078;2023-02-17T15:44:23;0.80;;;0.68;;
23490;SDS011;14683;50.038;8.078;2023-02-17T15:46:51;1.48;;;0.60;;
23490;SDS011;14683;50.038;8.078;2023-02-17T15:49:19;0.70;;;0.70;;
23490;SDS011;14683;50.038;8.078;2023-02-17T15:51:45;0.73;;;0.73;;
23490;SDS011;14683;50.038;8.078;2023-02-17T15:54:12;0.70;;;0.70;;
23490;SDS011;14683;50.038;8.078;2023-02-17T15:59:07;0.98;;;0.80;;
23490;SDS011;14683;50.038;8.078;2023-02-17T16:01:35;0.70;;;0.70;;
23490;SDS011;14683;50.038;8.078;2023-02-17T16:04:01;0.77;;;0.77;;
23490;SDS011;14683;50.038;8.078;2023-02-17T16:06:27;0.77;;;0.77;;
23490;SDS011;14683;50.038;8.078;2023-02-17T16:08:54;1.02;;;1.00;;
23490;SDS011;14683;50.038;8.078;2023-02-17T16:11:22;1.13;;;0.90;;
23490;SDS011;14683;50.038;8.078;2023-02-17T16:13:49;0.90;;;0.90;;
23490;SDS011;14683;50.038;8.078;2023-02-17T16:16:22;0.90;;;0.90;;
23490;SDS011;14683;50.038;8.078;2023-02-17T16:18:49;0.90;;;0.90;;
23490;SDS011;14683;50.038;8.078;2023-02-17T16:21:16;1.10;;;1.00;;
23490;SDS011;14683;50.038;8.078;2023-02-17T16:23:43;0.80;;;0.80;;
23490;SDS011;14683;50.038;8.078;2023-02-17T16:26:12;2.03;;;0.95;;
23490;SDS011;14683;50.038;8.078;2023-02-17T16:28:40;1.08;;;1.00;;
23490;SDS011;14683;50.038;8.078;2023-02-17T16:31:08;1.33;;;0.98;;
23490;SDS011;14683;50.038;8.078;2023-02-17T16:33:35;1.08;;;1.08;;
23490;SDS011;14683;50.038;8.078;2023-02-17T16:36:01;0.90;;;0.90;;
23490;SDS011;14683;50.038;8.078;2023-02-17T16:38:27;1.20;;;1.10;;
23490;SDS011;14683;50.038;8.078;2023-02-17T16:40:54;1.27;;;1.20;;
23490;SDS011;14683;50.038;8.078;2023-02-17T16:43:23;1.65;;;0.93;;
23490;SDS011;14683;50.038;8.078;2023-02-17T16:48:22;1.65;;;1.30;;
23490;SDS011;14683;50.038;8.078;2023-02-17T16:50:50;1.27;;;1.17;;
23490;SDS011;14683;50.038;8.078;2023-02-17T16:53:16;1.90;;;1.33;;
23490;SDS011;14683;50.038;8.078;2023-02-17T16:58:16;1.27;;;1.20;;
23490;SDS011;14683;50.038;8.078;2023-02-17T17:00:44;2.22;;;1.40;;
23490;SDS011;14683;50.038;8.078;2023-02-17T17:03:11;1.08;;;1.08;;
23490;SDS011;14683;50.038;8.078;2023-02-17T17:05:37;1.23;;;1.23;;
23490;SDS011;14683;50.038;8.078;2023-02-17T17:08:04;1.52;;;1.42;;
23490;SDS011;14683;50.038;8.078;2023-02-17T17:10:31;1.23;;;1.23;;
23490;SDS011;14683;50.038;8.078;2023-02-17T17:12:58;1.38;;;1.27;;
23490;SDS011;14683;50.038;8.078;2023-02-17T17:15:25;1.52;;;1.40;;
23490;SDS011;14683;50.038;8.078;2023-02-17T17:20:26;1.13;;;1.00;;
23490;SDS011;14683;50.038;8.078;2023-02-17T17:22:57;1.25;;;1.17;;
23490;SDS011;14683;50.038;8.078;2023-02-17T17:25:25;1.77;;;1.67;;
23490;SDS011;14683;50.038;8.078;2023-02-17T17:27:51;1.92;;;1.50;;
23490;SDS011;14683;50.038;8.078;2023-02-17T17:32:44;2.92;;;1.60;;
23490;SDS011;14683;50.038;8.078;2023-02-17T17:35:11;1.50;;;1.40;;
23490;SDS011;14683;50.038;8.078;2023-02-17T17:37:38;1.35;;;1.27;;
23490;SDS011;14683;50.038;8.078;2023-02-17T17:40:05;1.80;;;1.40;;
23490;SDS011;14683;50.038;8.078;2023-02-17T17:42:32;1.80;;;1.40;;
23490;SDS011;14683;50.038;8.078;2023-02-17T17:44:58;1.80;;;1.70;;
23490;SDS011;14683;50.038;8.078;2023-02-17T17:47:24;3.45;;;1.77;;
23490;SDS011;14683;50.038;8.078;2023-02-17T17:49:50;1.48;;;1.38;;
23490;SDS011;14683;50.038;8.078;2023-02-17T17:52:16;1.90;;;1.80;;
23490;SDS011;14683;50.038;8.078;2023-02-17T17:54:45;3.35;;;1.58;;
23490;SDS011;14683;50.038;8.078;2023-02-17T17:57:11;3.75;;;1.90;;
23490;SDS011;14683;50.038;8.078;2023-02-17T17:59:37;2.08;;;1.80;;
23490;SDS011;14683;50.038;8.078;2023-02-17T18:02:03;1.73;;;1.60;;
23490;SDS011;14683;50.038;8.078;2023-02-17T18:04:29;2.15;;;2.05;;
23490;SDS011;14683;50.038;8.078;2023-02-17T18:06:55;2.10;;;1.90;;
23490;SDS011;14683;50.038;8.078;2023-02-17T18:09:22;1.98;;;1.65;;
23490;SDS011;14683;50.038;8.078;2023-02-17T18:11:50;2.13;;;2.03;;
23490;SDS011;14683;50.038;8.078;2023-02-17T18:14:18;5.03;;;2.10;;
23490;SDS011;14683;50.038;8.078;2023-02-17T18:16:45;2.05;;;1.95;;
23490;SDS011;14683;50.038;8.078;2023-02-17T18:19:12;2.17;;;2.08;;
23490;SDS011;14683;50.038;8.078;2023-02-17T18:21:39;2.90;;;2.30;;
23490;SDS011;14683;50.038;8.078;2023-02-17T18:24:05;3.53;;;2.45;;
23490;SDS011;14683;50.038;8.078;2023-02-17T18:26:32;2.65;;;2.45;;
23490;SDS011;14683;50.038;8.078;2023-02-17T18:28:58;2.75;;;2.55;;
23490;SDS011;14683;50.038;8.078;2023-02-17T18:31:24;2.55;;;2.35;;
23490;SDS011;14683;50.038;8.078;2023-02-17T18:33:51;2.67;;;2.47;;
23490;SDS011;14683;50.038;8.078;2023-02-17T18:36:19;2.80;;;2.60;;
23490;SDS011;14683;50.038;8.078;2023-02-17T18:38:48;2.90;;;2.70;;
23490;SDS011;14683;50.038;8.078;2023-02-17T18:41:18;2.97;;;2.78;;
23490;SDS011;14683;50.038;8.078;2023-02-17T18:43:50;4.05;;;2.75;;
23490;SDS011;14683;50.038;8.078;2023-02-17T18:46:16;3.30;;;3.00;;
23490;SDS011;14683;50.038;8.078;2023-02-17T18:48:42;5.50;;;3.00;;
23490;SDS011;14683;50.038;8.078;2023-02-17T18:51:10;4.65;;;2.97;;
23490;SDS011;14683;50.038;8.078;2023-02-17T18:53:37;3.05;;;2.85;;
23490;SDS011;14683;50.038;8.078;2023-02-17T18:56:08;3.65;;;3.35;;
23490;SDS011;14683;50.038;8.078;2023-02-17T18:58:36;3.42;;;3.20;;
23490;SDS011;14683;50.038;8.078;2023-02-17T19:01:02;3.38;;;3.13;;
23490;SDS011;14683;50.038;8.078;2023-02-17T19:05:54;3.70;;;3.17;;
23490;SDS011;14683;50.038;8.078;2023-02-17T19:08:20;3.00;;;2.70;;
23490;SDS011;14683;50.038;8.078;2023-02-17T19:10:46;3.78;;;3.47;;
23490;SDS011;14683;50.038;8.078;2023-02-17T19:13:12;4.90;;;3.63;;
23490;SDS011;14683;50.038;8.078;2023-02-17T19:15:38;3.60;;;3.28;;
23490;SDS011;14683;50.038;8.078;2023-02-17T19:18:04;3.70;;;3.22;;
23490;SDS011;14683;50.038;8.078;2023-02-17T19:20:30;4.88;;;3.78;;
23490;SDS011;14683;50.038;8.078;2023-02-17T19:22:56;4.20;;;3.38;;
23490;SDS011;14683;50.038;8.078;2023-02-17T19:25:23;3.80;;;3.42;;
23490;SDS011;14683;50.038;8.078;2023-02-17T19:27:49;3.60;;;3.30;;
23490;SDS011;14683;50.038;8.078;2023-02-17T19:30:15;4.28;;;3.40;;
23490;SDS011;14683;50.038;8.078;2023-02-17T19:32:41;4.18;;;3.78;;
23490;SDS011;14683;50.038;8.078;2023-02-17T19:35:07;4.85;;;4.00;;
23490;SDS011;14683;50.038;8.078;2023-02-17T19:37:34;4.38;;;3.97;;
23490;SDS011;14683;50.038;8.078;2023-02-17T19:40:00;4.07;;;3.67;;
23490;SDS011;14683;50.038;8.078;2023-02-17T19:42:26;4.20;;;3.80;;
23490;SDS011;14683;50.038;8.078;2023-02-17T19:44:52;4.32;;;3.92;;
23490;SDS011;14683;50.038;8.078;2023-02-17T19:47:18;4.38;;;3.70;;
23490;SDS011;14683;50.038;8.078;2023-02-17T19:49:44;5.43;;;4.00;;
23490;SDS011;14683;50.038;8.078;2023-02-17T19:52:10;4.38;;;3.65;;
23490;SDS011;14683;50.038;8.078;2023-02-17T19:54:36;3.75;;;3.45;;
23490;SDS011;14683;50.038;8.078;2023-02-17T19:57:02;7.38;;;4.95;;
23490;SDS011;14683;50.038;8.078;2023-02-17T19:59:29;8.30;;;3.75;;
23490;SDS011;14683;50.038;8.078;2023-02-17T20:01:57;4.38;;;3.67;;
23490;SDS011;14683;50.038;8.078;2023-02-17T20:06:49;4.28;;;3.38;;
23490;SDS011;14683;50.038;8.078;2023-02-17T20:09:17;4.75;;;3.97;;
23490;SDS011;14683;50.038;8.078;2023-02-17T20:11:44;4.10;;;3.80;;
23490;SDS011;14683;50.038;8.078;2023-02-17T20:14:11;4.10;;;3.42;;
23490;SDS011;14683;50.038;8.078;2023-02-17T20:16:38;4.55;;;3.88;;
23490;SDS011;14683;50.038;8.078;2023-02-17T20:19:04;6.03;;;4.55;;
23490;SDS011;14683;50.038;8.078;2023-02-17T20:21:32;5.75;;;3.80;;
23490;SDS011;14683;50.038;8.078;2023-02-17T20:23:59;4.60;;;4.20;;
23490;SDS011;14683;50.038;8.078;2023-02-17T20:26:26;4.60;;;4.15;;
23490;SDS011;14683;50.038;8.078;2023-02-17T20:28:54;5.10;;;4.32;;
23490;SDS011;14683;50.038;8.078;2023-02-17T20:31:20;5.35;;;4.22;;
23490;SDS011;14683;50.038;8.078;2023-02-17T20:36:12;5.93;;;4.40;;
23490;SDS011;14683;50.038;8.078;2023-02-17T20:41:08;6.13;;;4.65;;
23490;SDS011;14683;50.038;8.078;2023-02-17T20:43:35;6.05;;;4.70;;
23490;SDS011;14683;50.038;8.078;2023-02-17T20:46:02;5.60;;;4.72;;
23490;SDS011;14683;50.038;8.078;2023-02-17T20:48:28;5.53;;;5.03;;
23490;SDS011;14683;50.038;8.078;2023-02-17T20:50:54;5.80;;;5.05;;
23490;SDS011;14683;50.038;8.078;2023-02-17T20:53:21;6.13;;;5.60;;
23490;SDS011;14683;50.038;8.078;2023-02-17T20:55:48;6.10;;;5.50;;
23490;SDS011;14683;50.038;8.078;2023-02-17T21:00:40;6.43;;;5.75;;
23490;SDS011;14683;50.038;8.078;2023-02-17T21:03:06;6.65;;;5.82;;
23490;SDS011;14683;50.038;8.078;2023-02-17T21:05:32;7.15;;;6.45;;
23490;SDS011;14683;50.038;8.078;2023-02-17T21:07:58;8.05;;;7.10;;
23490;SDS011;14683;50.038;8.078;2023-02-17T21:10:25;7.68;;;6.88;;
23490;SDS011;14683;50.038;8.078;2023-02-17T21:12:52;8.63;;;6.32;;
23490;SDS011;14683;50.038;8.078;2023-02-17T21:15:18;8.00;;;6.97;;
23490;SDS011;14683;50.038;8.078;2023-02-17T21:17:45;7.22;;;6.35;;
23490;SDS011;14683;50.038;8.078;2023-02-17T21:22:38;8.00;;;6.30;;
23490;SDS011;14683;50.038;8.078;2023-02-17T21:25:04;8.95;;;7.03;;
23490;SDS011;14683;50.038;8.078;2023-02-17T21:29:56;10.38;;;7.72;;
23490;SDS011;14683;50.038;8.078;2023-02-17T21:32:23;7.60;;;6.50;;
23490;SDS011;14683;50.038;8.078;2023-02-17T21:34:49;8.25;;;6.65;;
23490;SDS011;14683;50.038;8.078;2023-02-17T21:37:15;8.27;;;6.60;;
23490;SDS011;14683;50.038;8.078;2023-02-17T21:39:41;7.80;;;6.70;;
23490;SDS011;14683;50.038;8.078;2023-02-17T21:42:07;7.93;;;7.10;;
23490;SDS011;14683;50.038;8.078;2023-02-17T21:44:33;9.55;;;7.28;;
